Time;durP1;ratioP1;P1;durP2;ratioP2;P2;SDS_P1;SDS_P2;PMS_P1;PMS_P2;Temp;Humidity;BMP_temperature;BMP_pressure;BME280_temperature;BME280_humidity;BME280_pressure;Samples;Min_cycle;Max_cycle;Signal;HPM_P1;HPM_P2
2021/11/17 04:01:18;;;;;;;17.87;11.57;;;;;;;2.30;84.97;101814.66;5069349;28;20423;-68
2021/11/17 04:04:09;;;;;;;16.83;9.83;;;;;;;2.52;85.15;101840.63;5069387;28;20847;-70
2021/11/17 04:07:00;;;;;;;17.83;11.27;;;;;;;2.55;84.89;101835.19;5069352;28;20754;-69
2021/11/17 04:09:44;;;;;;;20.13;12.17;;;;;;;2.61;84.28;101834.88;5068988;28;20271;-71
2021/11/17 04:12:17;;;;;;;18.17;11.33;;;;;;;2.65;83.89;101831.13;5069091;28;20264;-69
2021/11/17 04:15:06;;;;;;;21.97;12.77;;;;;;;2.69;84.26;101827.41;5069150;28;20750;-71
2021/11/17 04:17:37;;;;;;;;;;;;;;;2.79;85.12;101831.19;5068325;28;20332;-67
2021/11/17 04:20:16;;;;;;;15.77;11.10;;;;;;;2.82;83.81;101830.16;5067850;28;19921;-69
2021/11/17 04:23:12;;;;;;;16.83;10.63;;;;;;;2.85;83.50;101823.88;5069106;28;20722;-69
2021/11/17 04:26:04;;;;;;;15.93;10.37;;;;;;;2.91;83.67;101831.47;5067644;28;20483;-70
2021/11/17 04:29:00;;;;;;;15.77;10.70;;;;;;;2.91;82.28;101826.19;5066862;28;20305;-74
2021/11/17 04:31:40;;;;;;;14.80;10.70;;;;;;;2.85;82.98;101823.88;5068715;28;20255;-68
2021/11/17 04:34:06;;;;;;;14.30;9.90;;;;;;;2.92;82.35;101827.88;5068801;28;20352;-69
2021/11/17 04:36:59;;;;;;;15.57;10.87;;;;;;;2.95;82.18;101823.28;5068672;28;20702;-70
2021/11/17 04:39:31;;;;;;;15.60;10.63;;;;;;;2.96;82.05;101825.00;5068772;28;20040;-69
2021/11/17 04:42:23;;;;;;;16.20;9.73;;;;;;;2.91;82.22;101821.78;5050594;28;20313;-68
2021/11/17 04:45:11;;;;;;;13.00;9.17;;;;;;;2.93;82.12;101824.31;5057415;28;20405;-70
2021/11/17 04:48:11;;;;;;;15.73;11.63;;;;;;;2.99;82.14;101829.22;5068205;28;20271;-69
2021/11/17 04:51:14;;;;;;;23.23;11.90;;;;;;;3.05;82.62;101831.50;5067159;28;20036;-70
2021/11/17 04:54:02;;;;;;;14.40;9.23;;;;;;;3.05;81.05;101826.22;5066834;28;20275;-69
2021/11/17 04:56:53;;;;;;;15.35;8.82;;;;;;;3.03;81.73;101817.59;5050509;28;20311;-70
2021/11/17 04:59:35;;;;;;;12.90;9.80;;;;;;;3.04;81.83;101827.16;5066486;28;20060;-66
2021/11/17 05:02:12;;;;;;;12.37;8.87;;;;;;;3.02;81.19;101818.53;5067165;28;20302;-71
2021/11/17 05:05:06;;;;;;;14.07;8.50;;;;;;;3.01;81.05;101819.47;5067879;28;20291;-72
2021/11/17 05:07:57;;;;;;;15.10;9.40;;;;;;;3.04;81.36;101821.91;5068153;28;20301;-70
2021/11/17 05:10:32;;;;;;;15.50;9.67;;;;;;;3.04;80.75;101816.66;5064284;28;20650;-70
2021/11/17 05:13:19;;;;;;;12.40;9.77;;;;;;;3.04;81.56;101817.50;5054564;28;20260;-68
2021/11/17 05:16:05;;;;;;;17.00;9.83;;;;;;;3.06;81.74;101814.78;5054634;28;20364;-69
2021/11/17 05:18:36;;;;;;;13.40;8.77;;;;;;;3.11;82.05;101810.09;5043202;28;20275;-71
2021/11/17 05:21:31;;;;;;;28.77;15.60;;;;;;;3.17;81.14;101820.25;5054916;28;20295;-67
2021/11/17 05:24:27;;;;;;;15.03;10.23;;;;;;;3.00;81.34;101794.94;5054758;28;20274;-70
2021/11/17 05:27:17;;;;;;;14.80;8.93;;;;;;;3.07;81.73;101811.19;5053329;28;20267;-69
2021/11/17 05:29:48;;;;;;;18.03;10.83;;;;;;;3.04;81.71;101816.66;5054648;28;20278;-70
2021/11/17 05:32:33;;;;;;;14.70;10.10;;;;;;;2.91;81.65;101795.47;5053243;28;20274;-67
2021/11/17 05:35:10;;;;;;;13.77;9.20;;;;;;;2.96;82.48;101803.09;5053126;28;20275;-71
2021/11/17 05:37:41;;;;;;;15.80;9.60;;;;;;;2.95;82.08;101806.66;5054109;28;20631;-68
2021/11/17 05:40:25;;;;;;;13.23;9.43;;;;;;;2.93;81.96;101804.13;5053802;28;20355;-69
2021/11/17 05:42:59;;;;;;;11.27;8.13;;;;;;;2.98;82.25;101809.97;5054238;28;20270;-66
2021/11/17 05:45:37;;;;;;;14.13;9.23;;;;;;;2.99;82.36;101813.44;5054104;28;20270;-68
2021/11/17 05:48:20;;;;;;;11.00;7.80;;;;;;;2.99;81.45;101809.03;5054609;28;20358;-67
2021/11/17 05:50:45;;;;;;;14.30;9.03;;;;;;;2.96;81.59;101808.34;5054692;28;20259;-65
2021/11/17 05:53:38;;;;;;;14.77;8.40;;;;;;;2.89;81.28;101804.34;5036439;28;20689;-71
2021/11/17 05:56:16;;;;;;;11.23;7.07;;;;;;;2.91;81.82;101799.88;5036439;28;20037;-66
2021/11/17 05:58:59;;;;;;;10.83;7.60;;;;;;;2.95;82.09;101798.75;5052710;28;20260;-67
2021/11/17 06:01:29;;;;;;;13.13;8.10;;;;;;;2.92;81.77;101801.56;5053408;28;20374;-66
2021/11/17 06:04:05;;;;;;;11.97;8.57;;;;;;;2.87;81.89;101790.44;5053193;28;20301;-69
2021/11/17 06:06:39;;;;;;;11.70;7.97;;;;;;;2.91;81.54;101810.41;5052103;28;20302;-67
2021/11/17 06:09:05;;;;;;;11.07;8.10;;;;;;;2.89;81.62;101806.97;5053998;28;20259;-73
2021/11/17 06:12:03;;;;;;;8.97;7.30;;;;;;;2.93;82.25;101805.91;5053655;28;20774;-66
2021/11/17 06:14:32;;;;;;;14.02;7.82;;;;;;;2.84;81.44;101798.50;5052228;28;20326;-69
2021/11/17 06:17:03;;;;;;;12.03;9.33;;;;;;;2.93;81.29;101800.63;5053711;28;20033;-67
2021/11/17 06:19:33;;;;;;;12.00;8.47;;;;;;;2.95;81.04;101796.13;5052647;28;20298;-64
2021/11/17 06:22:00;;;;;;;13.43;8.20;;;;;;;2.88;81.70;101794.75;5053655;28;20758;-70
2021/11/17 06:24:28;;;;;;;10.07;7.33;;;;;;;2.94;81.42;101794.44;5052374;28;20866;-65
2021/11/17 06:26:54;;;;;;;10.63;7.60;;;;;;;2.79;81.42;101759.31;5052114;28;20267;-65
2021/11/17 06:29:20;;;;;;;10.77;7.67;;;;;;;2.97;81.06;101789.00;5051453;28;20329;-64
2021/11/17 06:31:46;;;;;;;12.10;7.93;;;;;;;2.97;81.09;101784.56;5051391;28;20766;-69
2021/11/17 06:34:30;;;;;;;11.30;8.53;;;;;;;3.02;81.16;101798.31;5052847;28;20051;-70
2021/11/17 06:36:57;;;;;;;11.07;8.20;;;;;;;2.90;81.35;101774.50;5051844;28;20275;-67
2021/11/17 06:39:23;;;;;;;11.10;7.93;;;;;;;2.96;81.46;101782.03;5051442;28;20804;-66
2021/11/17 06:41:49;;;;;;;10.43;7.40;;;;;;;3.07;80.64;101785.72;5051585;28;20267;-65
2021/11/17 06:44:14;;;;;;;9.80;7.40;;;;;;;2.99;80.73;101779.22;5053033;28;20278;-68
2021/11/17 06:46:40;;;;;;;7.90;7.10;;;;;;;2.98;81.01;101788.06;5034950;28;20492;-66
2021/11/17 06:49:06;;;;;;;10.00;7.90;;;;;;;2.95;80.55;101777.72;5052998;28;20043;-67
2021/11/17 06:51:31;;;;;;;10.07;7.60;;;;;;;2.95;80.95;101772.44;5051308;28;20448;-65
2021/11/17 06:53:57;;;;;;;13.03;8.13;;;;;;;2.94;81.01;101758.44;5053045;28;20045;-64
2021/11/17 06:56:22;;;;;;;13.53;7.63;;;;;;;3.08;81.26;101778.69;5052641;28;20485;-66
2021/11/17 06:58:48;;;;;;;12.13;7.83;;;;;;;3.01;80.91;101766.81;5052646;28;20087;-66
2021/11/17 07:01:14;;;;;;;11.10;9.20;;;;;;;3.08;80.94;101786.56;5052639;28;20056;-69
2021/11/17 07:03:40;;;;;;;11.07;8.03;;;;;;;2.87;80.94;101745.72;5052350;28;20048;-67
2021/11/17 07:06:06;;;;;;;12.63;9.00;;;;;;;3.08;80.96;101786.56;5052377;28;20271;-68
2021/11/17 07:08:32;;;;;;;12.60;9.03;;;;;;;3.09;80.64;101780.38;5053325;28;20537;-67
2021/11/17 07:10:57;;;;;;;13.17;8.40;;;;;;;3.13;80.46;101787.16;5052163;28;20306;-71
2021/11/17 07:13:24;;;;;;;14.33;8.83;;;;;;;2.94;81.02;101768.97;5052684;28;20534;-78
2021/11/17 07:15:49;;;;;;;12.50;8.53;;;;;;;2.98;81.59;101775.75;5052037;28;20459;-67
2021/11/17 07:18:16;;;;;;;10.87;8.30;;;;;;;3.08;81.39;101782.16;5050780;28;20263;-68
2021/11/17 07:20:43;;;;;;;11.90;8.40;;;;;;;3.09;81.15;101783.00;5052298;28;20123;-67
2021/11/17 07:23:09;;;;;;;12.83;9.50;;;;;;;3.16;81.29;101788.75;5051553;28;20271;-74
2021/11/17 07:25:35;;;;;;;12.63;7.87;;;;;;;3.23;81.47;101787.47;5034237;28;20785;-67
2021/11/17 07:28:02;;;;;;;10.73;7.60;;;;;;;3.27;81.13;101792.47;5052321;28;20302;-76
2021/11/17 07:30:30;;;;;;;16.43;8.07;;;;;;;3.27;80.49;101787.19;5052378;28;20311;-74
2021/11/17 07:32:56;;;;;;;12.73;8.32;;;;;;;3.16;80.64;101771.16;5051851;28;20808;-71
2021/11/17 07:35:24;;;;;;;14.83;9.00;;;;;;;3.24;81.24;101787.38;5052354;28;20028;-71
2021/11/17 07:37:51;;;;;;;10.73;8.32;;;;;;;3.10;81.08;101764.50;5052329;28;20053;-71
2021/11/17 07:40:18;;;;;;;14.43;8.87;;;;;;;3.17;81.34;101785.19;5052110;28;20087;-77
2021/11/17 07:42:43;;;;;;;15.20;8.53;;;;;;;3.09;81.29;101775.09;5049949;28;20275;-74
2021/11/17 07:45:12;;;;;;;12.80;9.17;;;;;;;2.70;81.69;101712.50;5051762;28;20270;-74
2021/11/17 07:47:39;;;;;;;13.02;8.90;;;;;;;3.15;81.21;101777.38;5052038;28;20037;-76
2021/11/17 07:50:06;;;;;;;10.33;7.97;;;;;;;3.22;81.26;101784.00;5033902;28;20059;-63
2021/11/17 07:52:33;;;;;;;12.80;8.83;;;;;;;3.19;81.21;101783.34;5051776;28;20279;-65
2021/11/17 07:55:00;;;;;;;17.87;9.97;;;;;;;3.13;81.92;101767.88;5050904;28;20272;-75
2021/11/17 07:57:32;;;;;;;16.83;11.60;;;;;;;3.15;81.46;101769.47;5033997;28;20274;-67
2021/11/17 08:00:00;;;;;;;13.03;8.33;;;;;;;3.20;81.77;101785.03;5033326;28;20442;-65
2021/11/17 08:02:28;;;;;;;12.23;8.37;;;;;;;3.25;80.99;101783.81;5051658;28;20793;-64
2021/11/17 08:04:54;;;;;;;13.53;9.07;;;;;;;3.11;80.94;101775.88;5050681;28;20267;-64
2021/11/17 08:07:20;;;;;;;14.27;9.10;;;;;;;3.13;81.72;101781.88;5051096;28;20399;-65
2021/11/17 08:09:50;;;;;;;11.13;9.23;;;;;;;3.09;80.98;101767.22;5051386;28;20132;-64
2021/11/17 08:12:18;;;;;;;12.87;8.33;;;;;;;3.22;80.67;101785.78;5051024;28;20032;-67
2021/11/17 08:14:43;;;;;;;13.47;9.33;;;;;;;3.21;81.39;101787.56;5051179;28;20788;-65
2021/11/17 08:17:09;;;;;;;14.13;8.87;;;;;;;3.21;81.11;101777.03;5049818;28;20747;-66
2021/11/17 08:19:34;;;;;;;13.47;10.13;;;;;;;3.25;81.27;101778.56;5051165;28;20534;-65
2021/11/17 08:22:07;;;;;;;11.60;8.97;;;;;;;3.31;80.96;101777.34;5049933;28;20073;-66
2021/11/17 08:24:37;;;;;;;14.70;9.07;;;;;;;3.34;81.26;101780.63;5051453;28;20531;-66
2021/11/17 08:27:05;;;;;;;13.13;8.77;;;;;;;3.35;80.81;101778.84;5051378;28;20320;-65
2021/11/17 08:29:31;;;;;;;11.77;9.18;;;;;;;3.36;80.51;101770.84;5051634;28;20264;-68
2021/11/17 08:31:56;;;;;;;18.40;8.80;;;;;;;3.37;80.74;101783.06;5051149;28;20385;-70
2021/11/17 08:34:22;;;;;;;11.13;8.17;;;;;;;3.27;81.37;101766.13;5051520;28;20120;-74
2021/11/17 08:36:48;;;;;;;9.67;8.00;;;;;;;3.33;81.15;101765.78;5049958;28;20442;-73
2021/11/17 08:39:16;;;;;;;10.43;8.00;;;;;;;3.43;81.17;101772.16;5051326;28;20272;-72
2021/11/17 08:41:43;;;;;;;11.48;8.00;;;;;;;3.52;80.51;101780.47;5049842;28;20044;-71
2021/11/17 08:44:08;;;;;;;13.30;7.70;;;;;;;3.25;81.00;101736.44;5051065;28;20048;-66
2021/11/17 08:46:35;;;;;;;14.90;8.93;;;;;;;3.51;80.32;101781.41;5052497;28;20259;-69
2021/11/17 08:49:01;;;;;;;11.10;8.60;;;;;;;3.36;80.84;101786.66;5053742;28;20087;-69
2021/11/17 08:51:30;;;;;;;12.83;8.30;;;;;;;3.33;81.21;101794.72;5054832;28;20271;-68
2021/11/17 08:53:56;;;;;;;;;;;;;;;3.33;81.63;101786.84;5055191;28;20723;-69
2021/11/17 08:56:21;;;;;;;16.23;9.50;;;;;;;3.22;82.26;101778.72;5053604;28;19924;-67
2021/11/17 08:58:47;;;;;;;14.43;9.33;;;;;;;3.32;81.94;101790.41;5054736;28;20260;-67
2021/11/17 09:01:14;;;;;;;12.30;8.60;;;;;;;3.31;81.89;101783.44;5054255;28;20069;-67
2021/11/17 09:03:44;;;;;;;11.27;8.03;;;;;;;3.37;81.89;101788.34;5054621;28;20106;-69
2021/11/17 09:06:12;;;;;;;14.43;8.80;;;;;;;3.39;81.78;101781.19;5053443;28;20275;-67
2021/11/17 09:08:38;;;;;;;11.30;8.10;;;;;;;3.31;82.13;101767.66;5054165;28;20068;-67
2021/11/17 09:11:07;;;;;;;11.93;8.77;;;;;;;3.42;82.37;101788.91;5054671;28;20500;-67
2021/11/17 09:13:33;;;;;;;13.73;9.10;;;;;;;3.34;82.53;101764.81;5053263;28;20047;-69
2021/11/17 09:16:00;;;;;;;13.60;9.87;;;;;;;3.45;82.08;101781.75;5054708;28;20268;-62
2021/11/17 09:18:29;;;;;;;12.23;8.23;;;;;;;3.45;82.21;101774.72;5054624;28;20267;-71
2021/11/17 09:20:58;;;;;;;11.07;8.10;;;;;;;3.49;81.49;101778.88;5054258;28;20386;-69
2021/11/17 09:23:26;;;;;;;10.73;8.70;;;;;;;3.48;81.75;101769.28;5054487;28;20283;-65
2021/11/17 09:25:53;;;;;;;11.88;8.43;;;;;;;3.55;81.67;101772.38;5054572;28;20260;-66
2021/11/17 09:28:21;;;;;;;12.13;8.50;;;;;;;3.65;81.79;101770.88;5053004;28;20846;-66
2021/11/17 09:30:48;;;;;;;12.27;8.97;;;;;;;3.64;81.40;101779.72;5054614;28;20296;-65
2021/11/17 09:33:15;;;;;;;11.17;8.03;;;;;;;3.45;82.01;101750.16;5054384;28;20766;-64
2021/11/17 09:35:42;;;;;;;13.40;9.13;;;;;;;3.53;82.23;101769.00;5054100;28;20310;-67
2021/11/17 09:38:09;;;;;;;13.27;8.37;;;;;;;3.58;82.50;101780.09;5053509;28;20406;-70
2021/11/17 09:40:48;;;;;;;15.47;8.40;;;;;;;3.56;82.89;101767.03;5054037;28;20295;-64
2021/11/17 09:43:17;;;;;;;11.63;7.53;;;;;;;3.59;82.12;101763.34;5053909;28;20359;-65
2021/11/17 09:45:46;;;;;;;9.57;7.30;;;;;;;3.55;82.10;101769.75;5054192;28;20264;-67
2021/11/17 09:48:14;;;;;;;;;;;;;;;3.62;81.88;101781.59;5054529;28;20362;-64
2021/11/17 09:50:45;;;;;;;10.80;7.77;;;;;;;3.48;82.30;101765.81;5054256;28;19924;-64
2021/11/17 09:53:28;;;;;;;11.30;8.40;;;;;;;3.53;82.92;101783.03;5054486;28;20266;-66
2021/11/17 09:56:05;;;;;;;14.30;8.30;;;;;;;3.56;83.21;101776.72;5054186;28;20264;-66
2021/11/17 09:58:35;;;;;;;8.37;6.83;;;;;;;3.62;82.95;101766.66;5053841;28;20264;-67
2021/11/17 10:01:14;;;;;;;13.77;7.60;;;;;;;3.73;82.18;101768.63;5052201;28;20298;-66
2021/11/17 10:03:51;;;;;;;12.23;8.10;;;;;;;3.80;81.18;101769.97;5053808;28;20279;-64
2021/11/17 10:07:23;;;;;;;12.57;7.17;;;;;;;3.72;81.59;101766.94;5053783;28;20272;-65
2021/11/17 10:15:00;;;;;;;9.30;7.50;;;;;;;3.48;80.93;101731.56;5053471;28;20274;-68
2021/11/17 10:17:42;;;;;;;9.83;7.60;;;;;;;3.74;81.39;101765.03;5053506;28;20271;-66
2021/11/17 10:20:17;;;;;;;10.33;8.23;;;;;;;3.74;81.24;101760.63;5051949;28;20643;-64
2021/11/17 10:23:04;;;;;;;13.33;8.00;;;;;;;3.74;81.56;101759.78;5053532;28;20359;-65
2021/11/17 10:25:41;;;;;;;8.95;7.35;;;;;;;3.82;81.42;101770.72;5053397;28;20271;-66
2021/11/17 10:28:06;;;;;;;11.40;8.00;;;;;;;3.82;81.79;101759.31;5053381;28;20037;-68
2021/11/17 10:30:37;;;;;;;11.60;7.73;;;;;;;3.73;80.22;101744.91;5053038;28;20298;-65
2021/11/17 10:33:20;;;;;;;11.97;7.67;;;;;;;3.83;80.78;101753.94;5053737;28;20045;-65
2021/11/17 10:36:03;;;;;;;11.93;8.37;;;;;;;3.82;80.43;101754.91;5053586;28;20271;-66
2021/11/17 10:38:40;;;;;;;11.03;8.03;;;;;;;3.87;80.99;101750.19;5053433;28;20275;-66
2021/11/17 10:41:29;;;;;;;11.13;7.97;;;;;;;3.84;81.06;101744.25;5052776;28;20287;-65
2021/11/17 10:44:06;;;;;;;10.30;7.30;;;;;;;3.82;81.23;101743.50;5053242;28;20325;-66
2021/11/17 10:46:44;;;;;;;10.37;7.80;;;;;;;3.82;81.01;101733.81;5053012;28;20612;-66
2021/11/17 10:49:17;;;;;;;13.23;8.40;;;;;;;3.86;80.66;101732.69;5052815;28;20333;-65
2021/11/17 10:51:58;;;;;;;10.30;8.17;;;;;;;3.85;80.48;101731.00;5052782;28;20271;-65
2021/11/17 10:54:28;;;;;;;12.00;7.60;;;;;;;3.91;80.87;101735.03;5053011;28;20278;-66
2021/11/17 10:57:18;;;;;;;10.97;8.67;;;;;;;3.83;81.12;101730.25;5051370;28;20260;-66
2021/11/17 10:59:44;;;;;;;10.53;7.80;;;;;;;3.58;81.05;101690.53;5052067;28;20306;-64
2021/11/17 11:02:12;;;;;;;11.17;8.47;;;;;;;3.78;81.46;101724.41;5052430;28;20280;-66
2021/11/17 11:04:56;;;;;;;11.68;8.63;;;;;;;3.85;80.78;101719.59;5052438;28;20045;-63
2021/11/17 11:07:30;;;;;;;14.03;9.23;;;;;;;3.87;80.96;101734.38;5052295;28;20549;-66
2021/11/17 11:10:17;;;;;;;13.33;8.93;;;;;;;3.86;81.50;101729.19;5051960;28;20275;-64
2021/11/17 11:13:12;;;;;;;13.33;8.63;;;;;;;3.83;81.50;101719.69;5052492;28;20314;-66
2021/11/17 11:15:59;;;;;;;9.77;7.23;;;;;;;3.86;81.57;101716.88;5052227;28;20285;-65
2021/11/17 11:18:36;;;;;;;9.97;7.70;;;;;;;3.96;81.12;101728.50;5050948;28;20298;-66
2021/11/17 11:21:08;;;;;;;11.30;7.87;;;;;;;3.95;81.74;101718.91;5052132;28;20341;-66
2021/11/17 11:24:07;;;;;;;14.17;8.30;;;;;;;3.96;81.43;101717.13;5052228;28;20354;-66
2021/11/17 11:26:58;;;;;;;11.93;8.57;;;;;;;3.96;80.87;101719.75;5051339;28;20735;-66
2021/11/17 11:29:51;;;;;;;10.90;7.83;;;;;;;4.02;81.49;101716.72;5050890;28;20303;-65
2021/11/17 11:32:16;;;;;;;13.63;8.30;;;;;;;3.98;80.17;101712.59;5052281;28;20322;-65
2021/11/17 11:35:03;;;;;;;10.53;8.23;;;;;;;4.07;80.56;101721.75;5052157;28;20255;-65
2021/11/17 11:37:32;;;;;;;10.37;7.40;;;;;;;4.03;80.22;101724.53;5051847;28;20060;-64
2021/11/17 11:40:04;;;;;;;11.13;8.33;;;;;;;3.97;80.42;101719.66;5052256;28;20665;-65
2021/11/17 11:42:32;;;;;;;10.63;8.07;;;;;;;3.95;80.63;101710.16;5051901;28;20267;-64
2021/11/17 11:45:27;;;;;;;11.05;7.07;;;;;;;3.92;81.10;101720.91;5051651;28;20260;-67
2021/11/17 11:47:59;;;;;;;9.40;6.97;;;;;;;3.91;81.32;101720.06;5051822;28;20040;-69
2021/11/17 11:50:31;;;;;;;10.13;8.47;;;;;;;3.85;80.75;101714.34;5052131;28;20271;-65
2021/11/17 11:53:03;;;;;;;12.13;8.27;;;;;;;3.88;81.29;101728.16;5051821;28;20271;-66
2021/11/17 11:55:54;;;;;;;11.20;7.47;;;;;;;3.88;81.00;101719.41;5052118;28;20271;-65
2021/11/17 11:58:24;;;;;;;11.03;7.80;;;;;;;3.81;80.52;101713.69;5050616;28;20290;-67
2021/11/17 12:00:59;;;;;;;13.37;7.43;;;;;;;3.78;81.01;101713.03;5051555;28;20303;-68
2021/11/17 12:03:29;;;;;;;15.43;8.07;;;;;;;3.79;80.70;101710.28;5051815;28;20374;-65
2021/11/17 12:06:01;;;;;;;11.23;7.07;;;;;;;3.76;80.50;101705.22;5051666;28;20796;-66
2021/11/17 12:08:26;;;;;;;10.97;8.10;;;;;;;3.78;81.00;101707.75;5051638;28;20358;-67
2021/11/17 12:11:01;;;;;;;9.87;6.97;;;;;;;3.74;81.08;101704.44;5050780;28;20299;-68
2021/11/17 12:14:06;;;;;;;11.00;8.03;;;;;;;3.71;80.97;101712.53;5051761;28;20635;-64
2021/11/17 12:16:37;;;;;;;10.37;7.03;;;;;;;3.70;81.05;101706.41;5050416;28;20785;-65
2021/11/17 12:19:29;;;;;;;11.53;7.87;;;;;;;3.67;81.48;101689.97;5051472;28;20369;-66
2021/11/17 12:22:04;;;;;;;8.67;6.73;;;;;;;3.81;81.42;101712.84;5053632;28;20267;-67
2021/11/17 12:24:40;;;;;;;11.43;7.90;;;;;;;3.80;80.31;101698.81;5055508;28;20769;-67
2021/11/17 12:27:05;;;;;;;9.73;7.33;;;;;;;3.79;80.13;101689.22;5055458;28;20390;-66
2021/11/17 12:29:40;;;;;;;11.30;7.40;;;;;;;3.88;80.50;101704.44;5055862;28;20724;-66
2021/11/17 12:32:09;;;;;;;10.20;8.13;;;;;;;3.79;80.30;101694.50;5055425;28;20033;-67
2021/11/17 12:34:48;;;;;;;11.60;7.67;;;;;;;3.82;80.38;101707.47;5055769;28;20277;-65
2021/11/17 12:37:26;;;;;;;14.07;7.30;;;;;;;3.62;80.17;101661.28;5055389;28;20132;-66
2021/11/17 12:39:58;;;;;;;12.85;8.25;;;;;;;3.83;81.14;101690.72;5055168;28;20291;-68
2021/11/17 12:42:33;;;;;;;10.80;8.60;;;;;;;3.87;80.01;101692.22;5055367;28;20492;-68
2021/11/17 12:45:01;;;;;;;11.77;7.17;;;;;;;3.84;79.90;101675.75;5055377;28;20308;-68
2021/11/17 12:48:05;;;;;;;9.77;7.33;;;;;;;3.94;80.70;101682.97;5055525;28;20359;-66
2021/11/17 12:50:38;;;;;;;8.97;5.97;;;;;;;3.93;80.17;101686.53;5043787;28;20268;-66
2021/11/17 12:53:12;;;;;;;11.83;7.03;;;;;;;3.93;79.68;101676.00;5055255;28;20755;-69
2021/11/17 12:55:47;;;;;;;10.20;6.40;;;;;;;3.92;79.43;101679.59;5055860;28;20264;-66
2021/11/17 12:58:32;;;;;;;10.63;7.40;;;;;;;3.83;80.13;101659.09;5055500;28;20267;-66
2021/11/17 13:01:16;;;;;;;9.97;7.27;;;;;;;3.97;79.20;101674.84;5054987;28;20303;-67
2021/11/17 13:03:47;;;;;;;9.10;7.00;;;;;;;3.91;79.66;101667.34;5055208;28;20310;-68
2021/11/17 13:06:23;;;;;;;12.33;7.90;;;;;;;3.93;79.06;101668.09;5054893;28;20285;-65
2021/11/17 13:09:43;;;;;;;8.77;6.70;;;;;;;3.97;79.85;101674.00;5054569;28;20267;-68
2021/11/17 13:12:25;;;;;;;10.23;7.17;;;;;;;3.86;79.04;101664.16;5032494;28;20304;-68
2021/11/17 13:15:22;;;;;;;8.03;6.60;;;;;;;3.87;79.73;101662.38;5054411;28;20275;-66
2021/11/17 13:17:48;;;;;;;7.90;6.83;;;;;;;3.87;78.85;101668.50;5054569;28;20325;-67
2021/11/17 13:20:13;;;;;;;9.43;7.77;;;;;;;3.77;79.78;101659.50;5053085;28;20299;-70
2021/11/17 13:22:43;;;;;;;11.83;8.03;;;;;;;3.72;79.52;101665.03;5054496;28;20276;-68
2021/11/17 13:25:27;;;;;;;10.63;8.03;;;;;;;3.77;79.56;101672.66;5054530;28;20045;-66
2021/11/17 13:27:57;;;;;;;11.67;7.63;;;;;;;3.74;79.67;101664.91;5053314;28;20267;-67
2021/11/17 13:30:32;;;;;;;11.83;9.10;;;;;;;3.65;80.25;101665.50;5054582;28;20421;-68
2021/11/17 13:33:15;;;;;;;11.60;8.70;;;;;;;3.65;80.35;101665.50;5053985;28;20823;-66
2021/11/17 13:35:41;;;;;;;8.23;7.43;;;;;;;3.62;80.04;101668.34;5055096;28;20758;-66
2021/11/17 13:38:13;;;;;;;8.50;7.20;;;;;;;3.53;79.92;101659.22;5054443;28;20284;-66
2021/11/17 13:40:40;;;;;;;8.40;7.30;;;;;;;3.49;80.64;101664.78;5054093;28;20067;-66
2021/11/17 13:43:08;;;;;;;8.13;6.73;;;;;;;3.39;80.29;101652.16;5054400;28;20763;-67
2021/11/17 13:45:34;;;;;;;10.30;6.70;;;;;;;3.47;80.13;101659.63;5054254;28;20282;-68
2021/11/17 13:48:00;;;;;;;12.43;7.87;;;;;;;3.48;80.43;101668.38;5054389;28;20263;-64
2021/11/17 13:50:34;;;;;;;10.67;7.30;;;;;;;3.49;80.20;101668.28;5053945;28;20124;-65
2021/11/17 13:53:00;;;;;;;8.37;7.03;;;;;;;3.46;80.31;101654.41;5053018;28;20263;-66
2021/11/17 13:55:29;;;;;;;12.43;7.37;;;;;;;3.50;79.96;101651.53;5054168;28;20270;-68
2021/11/17 13:57:55;;;;;;;;;;;;;;;3.65;80.44;101662.88;5054364;28;20549;-69
2021/11/17 14:00:22;;;;;;;9.97;6.17;;;;;;;3.64;79.77;101648.00;5053936;28;19921;-66
2021/11/17 14:02:48;;;;;;;8.73;7.37;;;;;;;3.67;79.51;101643.41;5053863;28;20468;-70
2021/11/17 14:05:16;;;;;;;9.13;6.40;;;;;;;3.76;79.66;101644.63;5053755;28;20812;-68
2021/11/17 14:07:42;;;;;;;10.27;7.07;;;;;;;3.74;79.40;101646.47;5053677;28;20267;-67
2021/11/17 14:10:09;;;;;;;11.40;6.40;;;;;;;3.67;79.94;101637.28;5052327;28;20638;-67
2021/11/17 14:12:34;;;;;;;11.93;6.53;;;;;;;3.68;80.02;101641.59;5053681;28;20314;-67
2021/11/17 14:15:01;;;;;;;9.93;7.10;;;;;;;3.47;79.89;101598.16;5052256;28;20272;-67
2021/11/17 14:17:29;;;;;;;12.07;6.95;;;;;;;3.68;80.32;101636.34;5053213;28;20040;-68
2021/11/17 14:19:55;;;;;;;13.70;8.97;;;;;;;3.68;80.00;101634.53;5053149;28;20510;-70
2021/11/17 14:22:22;;;;;;;8.87;6.17;;;;;;;3.61;79.59;101617.44;5053299;28;20041;-67
2021/11/17 14:24:47;;;;;;;9.43;6.87;;;;;;;3.61;79.75;101619.22;5053610;28;20041;-67
2021/11/17 14:27:14;;;;;;;8.77;6.83;;;;;;;3.66;79.85;101631.16;5053264;28;20803;-69
2021/11/17 14:29:47;;;;;;;8.97;6.50;;;;;;;3.59;80.08;101629.03;5053345;28;20041;-67
2021/11/17 14:32:20;;;;;;;12.10;6.67;;;;;;;3.53;80.97;101629.41;5052855;28;20271;-66
2021/11/17 14:34:46;;;;;;;12.67;6.73;;;;;;;3.56;80.41;101629.22;5052999;28;20325;-63
2021/11/17 14:37:11;;;;;;;9.00;6.67;;;;;;;3.56;80.31;101629.22;5053379;28;20770;-66
2021/11/17 14:39:40;;;;;;;9.53;7.40;;;;;;;3.53;80.44;101630.25;5053210;28;20523;-65
2021/11/17 14:42:08;;;;;;;;;;;;;;;3.59;80.18;101639.56;5053914;28;20048;-64
2021/11/17 14:44:34;;;;;;;11.00;7.00;;;;;;;3.55;80.52;101633.66;5052430;28;19952;-66
2021/11/17 14:47:00;;;;;;;7.77;5.77;;;;;;;3.55;79.90;101635.44;5052755;28;20702;-67
2021/11/17 14:49:31;;;;;;;10.10;7.67;;;;;;;3.53;80.15;101619.72;5053084;28;20302;-64
2021/11/17 14:51:58;;;;;;;9.07;6.37;;;;;;;3.48;79.70;101615.69;5052857;28;20041;-65
2021/11/17 14:54:24;;;;;;;8.43;6.40;;;;;;;3.45;79.96;101621.97;5052724;28;20295;-66
2021/11/17 14:56:49;;;;;;;10.13;6.73;;;;;;;3.49;80.51;101622.66;5052660;28;20731;-64
2021/11/17 14:59:15;;;;;;;8.97;6.50;;;;;;;3.39;79.79;101617.94;5052396;28;20118;-66
2021/11/17 15:01:44;;;;;;;11.10;7.50;;;;;;;2.93;80.53;101540.16;5053256;28;20055;-65
2021/11/17 15:04:10;;;;;;;10.18;6.50;;;;;;;3.35;79.79;101605.91;5052959;28;20281;-67
2021/11/17 15:06:38;;;;;;;8.93;6.40;;;;;;;3.37;79.98;101617.19;5052620;28;20036;-65
2021/11/17 15:09:06;;;;;;;10.47;6.80;;;;;;;3.30;80.39;101600.09;5052751;28;20643;-63
2021/11/17 15:11:53;;;;;;;13.65;7.68;;;;;;;3.38;79.59;101616.25;5052461;28;20279;-64
2021/11/17 15:14:22;;;;;;;7.67;5.93;;;;;;;3.24;79.84;101582.06;5052627;28;20119;-66
2021/11/17 15:16:48;;;;;;;11.85;6.68;;;;;;;3.25;79.86;101586.38;5052374;28;20669;-65
2021/11/17 15:19:14;;;;;;;14.90;8.67;;;;;;;3.31;79.93;101599.16;5052574;28;20444;-65
2021/11/17 15:21:40;;;;;;;9.70;6.67;;;;;;;3.29;79.87;101598.41;5052128;28;20789;-65
2021/11/17 15:24:06;;;;;;;12.67;7.57;;;;;;;3.32;80.10;101598.22;5050787;28;20260;-66
2021/11/17 15:26:43;;;;;;;9.93;7.10;;;;;;;3.32;80.29;101606.09;5052011;28;20174;-67
2021/11/17 15:29:09;;;;;;;8.53;6.63;;;;;;;3.30;79.47;101596.63;5052182;28;20266;-68
2021/11/17 15:31:34;;;;;;;10.40;6.67;;;;;;;3.25;80.01;101594.28;5052216;28;20272;-66
2021/11/17 15:34:00;;;;;;;16.50;6.87;;;;;;;3.12;79.95;101588.06;5051753;28;20146;-68
2021/11/17 15:36:25;;;;;;;8.13;7.00;;;;;;;3.21;80.02;101597.19;5052376;28;20555;-64
2021/11/17 15:38:52;;;;;;;8.77;6.60;;;;;;;3.13;80.28;101596.78;5051849;28;20039;-67
2021/11/17 15:41:22;;;;;;;11.37;7.53;;;;;;;3.10;80.07;101601.31;5051977;28;20145;-70
2021/11/17 15:43:49;;;;;;;15.63;7.67;;;;;;;3.10;80.43;101589.94;5052328;28;20440;-65
2021/11/17 15:46:16;;;;;;;11.23;8.27;;;;;;;3.12;80.15;101593.31;5051739;28;20275;-64
2021/11/17 15:48:41;;;;;;;9.83;6.80;;;;;;;3.04;80.65;101580.63;5050597;28;20282;-66
2021/11/17 15:51:09;;;;;;;9.20;6.63;;;;;;;3.09;80.61;101594.34;5051764;28;20762;-64
2021/11/17 15:53:35;;;;;;;9.20;7.32;;;;;;;3.11;80.23;101587.22;5051749;28;20542;-63
2021/11/17 15:56:04;;;;;;;9.60;7.47;;;;;;;3.04;80.21;101569.28;5051622;28;20127;-65
2021/11/17 15:58:30;;;;;;;10.63;7.75;;;;;;;3.17;80.34;101574.59;5050663;28;20259;-62
2021/11/17 16:00:58;;;;;;;13.27;7.50;;;;;;;3.16;79.99;101568.50;5051266;28;20463;-63